Time;durP1;ratioP1;P1;durP2;ratioP2;P2;SDS_P1;SDS_P2;PMS_P1;PMS_P2;Temp;Humidity;BMP_temperature;BMP_pressure;BME280_temperature;BME280_humidity;BME280_pressure;Samples;Min_cycle;Max_cycle;Signal;HPM_P1;HPM_P2
2024/01/22 00:02:12;;;;;;;1.93;1.50;;;4.50;96.10;;;;;;5113041;27;20180;-73
2024/01/22 00:04:37;;;;;;;1.80;1.53;;;4.50;96.80;;;;;;5131561;27;20915;-73
2024/01/22 00:07:03;;;;;;;2.43;1.10;;;4.50;97.50;;;;;;5130890;27;20187;-72
2024/01/22 00:09:28;;;;;;;2.53;1.40;;;4.50;98.10;;;;;;5112465;27;20382;-72
2024/01/22 00:11:54;;;;;;;2.87;1.30;;;4.60;98.80;;;;;;5111830;27;20698;-72
2024/01/22 00:14:20;;;;;;;3.40;1.80;;;4.60;98.40;;;;;;5130561;27;20182;-72
2024/01/22 00:16:45;;;;;;;1.80;1.60;;;4.60;98.10;;;;;;5111830;27;20194;-73
2024/01/22 00:19:11;;;;;;;2.50;1.50;;;4.60;97.90;;;;;;5111718;27;20206;-73
2024/01/22 00:21:43;;;;;;;1.23;1.13;;;4.60;96.70;;;;;;5111815;27;20183;-72
2024/01/22 00:24:09;;;;;;;2.00;1.63;;;4.60;97.00;;;;;;5130171;27;20194;-72
2024/01/22 00:26:35;;;;;;;3.83;1.73;;;4.50;96.60;;;;;;5130043;27;20181;-72
2024/01/22 00:29:00;;;;;;;17.57;2.57;;;4.50;96.00;;;;;;5111419;27;20394;-73
2024/01/22 00:31:26;;;;;;;5.07;1.83;;;4.50;95.40;;;;;;5130045;27;20985;-74
2024/01/22 00:33:52;;;;;;;4.90;2.17;;;4.50;95.70;;;;;;5129989;27;20690;-73
2024/01/22 00:36:17;;;;;;;1.80;1.33;;;4.50;96.10;;;;;;5129766;27;20285;-73
2024/01/22 00:38:43;;;;;;;2.10;1.60;;;4.60;95.50;;;;;;5129772;27;21085;-73
2024/01/22 00:41:09;;;;;;;2.03;1.67;;;4.50;95.00;;;;;;5129676;27;20254;-73
2024/01/22 00:43:36;;;;;;;2.03;1.00;;;4.60;94.70;;;;;;5129504;27;20424;-73
2024/01/22 00:46:03;;;;;;;2.40;1.42;;;4.70;94.20;;;;;;5129566;27;20998;-73
2024/01/22 00:48:29;;;;;;;1.47;1.37;;;4.70;93.90;;;;;;5129455;27;20301;-73
2024/01/22 00:50:54;;;;;;;4.20;1.50;;;4.80;93.60;;;;;;5110676;27;20297;-73
2024/01/22 00:53:20;;;;;;;1.63;1.50;;;4.70;94.40;;;;;;5129487;27;20188;-73
2024/01/22 00:55:46;;;;;;;2.97;1.27;;;4.80;93.80;;;;;;5129451;27;20201;-73
2024/01/22 00:58:12;;;;;;;1.97;1.70;;;4.70;94.50;;;;;;5129401;27;20198;-73
2024/01/22 01:00:38;;;;;;;2.33;1.50;;;4.70;95.20;;;;;;5111035;27;20431;-73
2024/01/22 01:03:03;;;;;;;3.70;1.37;;;4.70;94.40;;;;;;5129549;27;20195;-75
2024/01/22 01:05:29;;;;;;;2.00;1.73;;;4.80;94.30;;;;;;5129601;27;20235;-73
2024/01/22 01:07:55;;;;;;;2.70;1.80;;;4.80;94.40;;;;;;5110698;28;20179;-73
2024/01/22 01:10:20;;;;;;;6.53;1.97;;;4.70;94.60;;;;;;5110890;28;20222;-73
2024/01/22 01:12:46;;;;;;;2.10;1.77;;;4.60;94.90;;;;;;5129393;28;20761;-73
2024/01/22 01:15:11;;;;;;;2.90;1.80;;;4.50;95.20;;;;;;5110680;28;20271;-73
2024/01/22 01:17:38;;;;;;;3.23;1.63;;;4.40;96.00;;;;;;5110737;28;20190;-73
2024/01/22 01:20:04;;;;;;;2.30;1.70;;;4.40;96.40;;;;;;5129078;28;20587;-73
2024/01/22 01:22:32;;;;;;;4.40;1.50;;;4.30;97.60;;;;;;5129288;28;20916;-73
2024/01/22 01:24:58;;;;;;;1.80;1.70;;;4.30;97.90;;;;;;5129132;28;20233;-73
2024/01/22 01:27:24;;;;;;;2.23;1.63;;;4.50;99.00;;;;;;5110786;28;20697;-73
2024/01/22 01:29:49;;;;;;;1.63;1.40;;;4.40;99.30;;;;;;5129091;28;20205;-73
2024/01/22 01:32:15;;;;;;;2.20;1.67;;;4.40;99.90;;;;;;5129208;28;20230;-74
2024/01/22 01:34:41;;;;;;;6.83;2.63;;;4.40;99.90;;;;;;5110440;28;20235;-73
2024/01/22 01:37:06;;;;;;;2.87;1.73;;;4.40;99.90;;;;;;5110409;28;20195;-72
2024/01/22 01:39:32;;;;;;;3.93;1.40;;;4.40;99.90;;;;;;5110460;28;20276;-72
2024/01/22 01:41:57;;;;;;;1.90;1.70;;;4.40;99.90;;;;;;5129076;28;20675;-72
2024/01/22 01:44:38;;;;;;;8.10;1.77;;;4.30;99.90;;;;;;5076464;28;20244;-72
2024/01/22 01:47:05;;;;;;;2.47;1.63;;;4.30;99.90;;;;;;5129052;28;20219;-72
2024/01/22 01:49:31;;;;;;;2.20;1.85;;;4.40;99.90;;;;;;5128743;28;20210;-72
2024/01/22 01:51:57;;;;;;;2.80;1.70;;;4.40;99.90;;;;;;5128703;28;20299;-72
2024/01/22 01:54:26;;;;;;;3.33;1.73;;;4.40;99.90;;;;;;5128972;27;20473;-72
2024/01/22 01:56:52;;;;;;;3.70;2.20;;;4.30;99.90;;;;;;5131868;27;20511;-72
2024/01/22 01:59:19;;;;;;;2.33;1.70;;;4.30;99.90;;;;;;5114322;27;20329;-72
2024/01/22 02:01:44;;;;;;;3.03;1.90;;;4.30;99.90;;;;;;5132835;27;20182;-72
2024/01/22 02:04:10;;;;;;;2.50;1.90;;;4.40;99.90;;;;;;5113850;27;20605;-72
2024/01/22 02:06:35;;;;;;;3.03;1.73;;;4.40;99.90;;;;;;5132727;27;20269;-72
2024/01/22 02:09:01;;;;;;;4.90;1.60;;;4.40;99.90;;;;;;5113995;27;20207;-72
2024/01/22 02:11:27;;;;;;;1.70;1.40;;;4.60;99.90;;;;;;5113752;27;20209;-73
2024/01/22 02:13:55;;;;;;;1.80;1.70;;;4.60;99.90;;;;;;5132510;27;20183;-72
2024/01/22 02:16:21;;;;;;;3.30;2.50;;;4.50;99.90;;;;;;5132454;27;20183;-72
2024/01/22 02:18:47;;;;;;;2.43;2.00;;;4.30;99.90;;;;;;5132419;27;20489;-73
2024/01/22 02:21:14;;;;;;;2.60;1.50;;;4.50;99.90;;;;;;5132516;27;20187;-72
2024/01/22 02:23:40;;;;;;;3.53;1.90;;;4.60;99.90;;;;;;5132331;27;20186;-72
2024/01/22 02:26:05;;;;;;;2.60;2.00;;;4.60;99.90;;;;;;5132357;27;20681;-73
2024/01/22 02:28:32;;;;;;;2.77;2.03;;;4.80;99.90;;;;;;5132249;27;20244;-73
2024/01/22 02:30:58;;;;;;;2.58;2.30;;;4.90;99.90;;;;;;5113560;27;20334;-72
2024/01/22 02:33:24;;;;;;;2.13;1.70;;;5.00;99.90;;;;;;5132108;27;20281;-73
2024/01/22 02:35:49;;;;;;;3.93;1.87;;;5.10;99.90;;;;;;5131931;27;20178;-73
2024/01/22 02:38:15;;;;;;;2.07;1.60;;;5.30;99.90;;;;;;5132090;27;20253;-73
2024/01/22 02:40:40;;;;;;;3.60;2.00;;;5.20;99.90;;;;;;5131893;27;20856;-73
2024/01/22 02:43:06;;;;;;;2.90;1.80;;;5.10;99.90;;;;;;5131734;27;20195;-73
2024/01/22 02:45:32;;;;;;;4.40;1.77;;;5.00;99.90;;;;;;5131941;27;20202;-73
2024/01/22 02:47:57;;;;;;;2.53;1.80;;;4.90;99.90;;;;;;5113278;27;20212;-73
2024/01/22 02:50:23;;;;;;;1.87;1.47;;;5.00;99.90;;;;;;5113257;27;20809;-73
2024/01/22 02:52:49;;;;;;;2.40;1.90;;;5.00;99.90;;;;;;5096215;27;20190;-73
2024/01/22 02:55:14;;;;;;;3.00;1.70;;;5.00;99.90;;;;;;5131843;27;20182;-73
2024/01/22 02:57:40;;;;;;;3.17;2.00;;;5.00;99.90;;;;;;5113444;27;20454;-73
2024/01/22 03:00:06;;;;;;;2.23;1.90;;;5.00;99.90;;;;;;5131577;27;20199;-73
2024/01/22 03:02:32;;;;;;;1.92;1.60;;;4.80;99.90;;;;;;5113312;27;20184;-73
2024/01/22 03:04:57;;;;;;;3.83;2.23;;;4.80;99.90;;;;;;5131620;27;20630;-73
2024/01/22 03:07:23;;;;;;;4.00;2.00;;;4.70;99.90;;;;;;5130144;27;20198;-73
2024/01/22 03:09:48;;;;;;;7.33;2.20;;;4.70;99.90;;;;;;5131574;27;20226;-73
2024/01/22 03:12:14;;;;;;;4.13;2.43;;;4.70;99.90;;;;;;5112889;27;20219;-73
2024/01/22 03:14:39;;;;;;;2.20;2.00;;;4.70;99.90;;;;;;5095896;27;20223;-73
2024/01/22 03:17:05;;;;;;;3.37;2.30;;;4.60;99.90;;;;;;5131719;27;20178;-73
2024/01/22 03:19:31;;;;;;;5.27;2.27;;;4.60;99.90;;;;;;5112637;27;20207;-73
2024/01/22 03:21:56;;;;;;;2.80;1.87;;;4.60;99.90;;;;;;5131375;27;20179;-73
2024/01/22 03:24:22;;;;;;;2.33;1.90;;;4.50;99.90;;;;;;5131227;27;20214;-73
2024/01/22 03:26:48;;;;;;;1.93;1.53;;;4.60;99.90;;;;;;5112661;27;20220;-73
2024/01/22 03:29:13;;;;;;;2.60;1.93;;;4.50;99.90;;;;;;5131265;27;20210;-73
2024/01/22 03:31:39;;;;;;;2.40;1.90;;;4.50;99.90;;;;;;5112630;27;20207;-74
2024/01/22 03:34:04;;;;;;;2.13;1.87;;;4.50;99.90;;;;;;5131017;27;20181;-73
2024/01/22 03:36:31;;;;;;;2.50;2.10;;;4.40;99.90;;;;;;5112403;27;20190;-73
2024/01/22 03:38:57;;;;;;;3.28;1.85;;;4.50;99.90;;;;;;5112165;27;20207;-73
2024/01/22 03:41:22;;;;;;;4.60;1.90;;;4.50;99.90;;;;;;5131420;27;20191;-73
2024/01/22 03:43:48;;;;;;;1.90;1.80;;;4.50;99.90;;;;;;5096034;27;20440;-73
2024/01/22 03:46:15;;;;;;;2.47;1.60;;;4.50;99.90;;;;;;5113257;27;21059;-73
2024/01/22 03:48:41;;;;;;;2.47;1.80;;;4.70;99.90;;;;;;5112804;27;20606;-73
2024/01/22 03:51:07;;;;;;;3.40;1.80;;;4.70;99.90;;;;;;5131049;27;20237;-73
2024/01/22 03:53:32;;;;;;;2.50;1.83;;;4.70;99.90;;;;;;5131155;27;20413;-73
2024/01/22 03:55:58;;;;;;;3.00;1.70;;;4.70;99.90;;;;;;5113056;27;20748;-73
2024/01/22 03:58:24;;;;;;;4.83;1.77;;;4.70;99.90;;;;;;5131285;27;20204;-73
2024/01/22 04:00:49;;;;;;;2.80;1.67;;;4.80;99.90;;;;;;5131287;27;20826;-72
2024/01/22 04:03:15;;;;;;;1.77;1.67;;;4.80;99.90;;;;;;5112350;27;20198;-73
2024/01/22 04:05:42;;;;;;;1.30;1.20;;;4.80;99.90;;;;;;5112470;27;20211;-73
2024/01/22 04:08:08;;;;;;;3.00;2.05;;;4.90;99.90;;;;;;5130482;27;20198;-73
2024/01/22 04:10:33;;;;;;;1.90;1.37;;;5.20;99.90;;;;;;5130283;27;20261;-71
2024/01/22 04:12:59;;;;;;;2.60;1.30;;;5.20;99.90;;;;;;5130275;27;20203;-71
2024/01/22 04:15:25;;;;;;;3.27;1.80;;;5.30;99.90;;;;;;5130142;27;20732;-73
2024/01/22 04:17:50;;;;;;;1.77;1.60;;;5.50;99.90;;;;;;5111158;27;20723;-72
2024/01/22 04:20:16;;;;;;;2.30;1.20;;;5.50;99.90;;;;;;5130014;27;20179;-72
2024/01/22 04:22:41;;;;;;;1.90;1.57;;;5.60;99.90;;;;;;5130094;27;20185;-73
2024/01/22 04:25:07;;;;;;;2.30;2.10;;;5.60;99.90;;;;;;5111504;27;20187;-74
2024/01/22 04:27:34;;;;;;;2.10;1.20;;;5.50;99.90;;;;;;5111478;27;20281;-72
2024/01/22 04:30:00;;;;;;;1.43;1.33;;;5.60;99.90;;;;;;5111093;27;20445;-72
2024/01/22 04:32:25;;;;;;;2.43;1.60;;;5.70;99.90;;;;;;5129675;27;21123;-72
2024/01/22 04:34:52;;;;;;;4.13;1.57;;;5.70;99.90;;;;;;5111373;27;20180;-72
2024/01/22 04:37:17;;;;;;;1.83;1.20;;;5.90;99.90;;;;;;5129862;27;20189;-72
2024/01/22 04:39:43;;;;;;;6.03;1.30;;;6.00;99.90;;;;;;5129695;27;20378;-72
2024/01/22 04:42:09;;;;;;;1.63;1.33;;;6.20;99.90;;;;;;5111432;27;20427;-72
2024/01/22 04:44:35;;;;;;;2.28;1.23;;;6.20;99.90;;;;;;5111347;27;20188;-72
2024/01/22 04:47:01;;;;;;;5.13;1.70;;;6.10;99.90;;;;;;5129730;27;20241;-72
2024/01/22 04:49:27;;;;;;;1.90;1.40;;;6.10;99.90;;;;;;5111097;27;20459;-72
2024/01/22 04:51:52;;;;;;;1.50;1.40;;;6.10;99.90;;;;;;5093989;27;20216;-73
2024/01/22 04:54:18;;;;;;;4.70;1.50;;;6.30;99.90;;;;;;5109900;27;20229;-73
2024/01/22 04:56:45;;;;;;;5.97;1.47;;;6.20;99.90;;;;;;5128387;27;20564;-74
2024/01/22 04:59:12;;;;;;;3.83;1.80;;;6.20;99.90;;;;;;5109607;27;20205;-74
2024/01/22 05:01:37;;;;;;;4.57;1.80;;;6.10;99.90;;;;;;5128945;27;20242;-74
2024/01/22 05:04:04;;;;;;;2.70;1.73;;;6.20;99.90;;;;;;5109839;28;20457;-72
2024/01/22 05:06:30;;;;;;;1.90;1.60;;;6.20;99.90;;;;;;5128740;27;20184;-73
2024/01/22 05:08:56;;;;;;;1.52;1.42;;;6.00;99.90;;;;;;5128632;27;20202;-73
2024/01/22 05:11:23;;;;;;;2.00;1.60;;;6.00;99.90;;;;;;5110383;28;20204;-74
2024/01/22 05:13:53;;;;;;;1.30;1.20;;;6.30;99.90;;;;;;5112163;28;20912;-72
2024/01/22 05:16:20;;;;;;;1.42;1.17;;;6.30;99.90;;;;;;5128517;28;20227;-72
2024/01/22 05:18:47;;;;;;;2.35;1.20;;;6.40;99.90;;;;;;5112463;28;20205;-74
2024/01/22 05:21:13;;;;;;;1.50;1.40;;;6.50;99.90;;;;;;5129308;28;20269;-73
2024/01/22 05:23:39;;;;;;;1.37;1.20;;;6.70;99.90;;;;;;5129010;28;21117;-74
2024/01/22 05:26:06;;;;;;;2.27;1.10;;;6.80;99.90;;;;;;5129379;28;20254;-73
2024/01/22 05:28:32;;;;;;;3.50;1.63;;;6.70;99.90;;;;;;5129401;28;20970;-73
2024/01/22 05:30:57;;;;;;;1.73;1.43;;;6.50;99.90;;;;;;5130509;27;20561;-73
2024/01/22 05:33:23;;;;;;;1.60;1.50;;;6.20;99.90;;;;;;5132841;27;20513;-73
2024/01/22 05:35:48;;;;;;;4.03;1.70;;;6.20;99.90;;;;;;5079973;27;20176;-73
2024/01/22 05:38:14;;;;;;;2.10;1.30;;;6.00;99.90;;;;;;5131726;27;20302;-73
2024/01/22 05:40:40;;;;;;;2.60;1.80;;;6.20;99.90;;;;;;5131809;27;20188;-74
2024/01/22 05:43:06;;;;;;;1.80;1.70;;;6.40;99.90;;;;;;5113227;27;20245;-73
2024/01/22 05:45:31;;;;;;;1.77;1.33;;;6.40;99.90;;;;;;5131684;27;20215;-73
2024/01/22 05:47:57;;;;;;;3.43;1.37;;;6.30;99.90;;;;;;5113060;27;20433;-73
2024/01/22 05:50:22;;;;;;;1.83;1.60;;;6.30;99.90;;;;;;5131694;27;20191;-74
2024/01/22 05:52:48;;;;;;;1.40;1.30;;;6.30;99.90;;;;;;5131635;27;20261;-73
2024/01/22 05:55:14;;;;;;;3.40;1.70;;;6.50;99.90;;;;;;5112949;27;20679;-73
2024/01/22 05:57:40;;;;;;;1.90;1.30;;;6.50;99.90;;;;;;5131577;27;20188;-72
2024/01/22 06:00:09;;;;;;;1.23;1.13;;;6.60;99.90;;;;;;5113224;27;20207;-73
2024/01/22 06:02:35;;;;;;;1.40;1.30;;;6.70;99.90;;;;;;5131361;27;20423;-73
2024/01/22 06:05:02;;;;;;;1.87;1.13;;;6.80;99.90;;;;;;5131377;27;20418;-73
2024/01/22 06:07:27;;;;;;;1.85;1.58;;;6.90;99.90;;;;;;5131512;27;20422;-73
2024/01/22 06:09:53;;;;;;;1.93;1.67;;;6.90;99.90;;;;;;5112796;27;20590;-73
2024/01/22 06:12:18;;;;;;;1.83;0.90;;;7.00;99.90;;;;;;5131109;27;20681;-73
2024/01/22 06:14:44;;;;;;;4.40;1.57;;;6.90;99.90;;;;;;5113034;27;20192;-73
2024/01/22 06:17:09;;;;;;;3.30;1.30;;;6.90;99.90;;;;;;5113077;27;20186;-73
2024/01/22 06:19:36;;;;;;;5.93;1.57;;;7.30;99.90;;;;;;5095757;27;20255;-73
2024/01/22 06:22:02;;;;;;;1.50;1.00;;;7.40;99.90;;;;;;5112525;27;20199;-73
2024/01/22 06:24:27;;;;;;;2.07;1.27;;;7.50;99.90;;;;;;5112718;27;20422;-73
2024/01/22 06:26:53;;;;;;;2.23;1.40;;;7.50;99.90;;;;;;5112674;27;20422;-73
2024/01/22 06:29:19;;;;;;;3.13;0.97;;;7.60;99.90;;;;;;5130772;27;20207;-73
2024/01/22 06:31:44;;;;;;;1.10;0.90;;;7.60;99.90;;;;;;5112525;27;20480;-74
2024/01/22 06:34:11;;;;;;;1.20;0.83;;;7.70;99.90;;;;;;5131313;27;20177;-73
2024/01/22 06:36:37;;;;;;;1.63;1.17;;;7.60;99.90;;;;;;5112359;27;20228;-74
2024/01/22 06:39:03;;;;;;;1.70;1.10;;;7.60;99.90;;;;;;5130706;27;20438;-73
2024/01/22 06:41:29;;;;;;;1.20;1.10;;;7.70;99.90;;;;;;5131203;27;20428;-72
2024/01/22 06:43:55;;;;;;;2.80;1.53;;;7.60;99.90;;;;;;5131201;27;20181;-72
2024/01/22 06:46:21;;;;;;;1.60;1.40;;;7.40;99.90;;;;;;5130616;27;20188;-72
2024/01/22 06:48:47;;;;;;;1.93;1.73;;;7.20;99.90;;;;;;5130557;27;20316;-73
2024/01/22 06:51:12;;;;;;;1.93;1.70;;;7.00;99.90;;;;;;5130642;27;20454;-72
2024/01/22 06:53:38;;;;;;;1.63;1.10;;;6.80;99.90;;;;;;5130836;27;20223;-72
2024/01/22 06:56:05;;;;;;;2.60;1.13;;;6.90;99.90;;;;;;5112427;27;20192;-72
2024/01/22 06:58:30;;;;;;;2.20;1.50;;;7.10;99.90;;;;;;5112535;27;20551;-74
2024/01/22 07:00:56;;;;;;;2.33;1.50;;;7.10;99.90;;;;;;5130697;27;20411;-72
2024/01/22 07:03:22;;;;;;;1.40;1.30;;;7.10;99.90;;;;;;5112374;27;20218;-73
2024/01/22 07:05:48;;;;;;;1.50;1.13;;;7.10;99.90;;;;;;5130477;27;20189;-73
2024/01/22 07:08:13;;;;;;;2.40;1.10;;;7.40;99.90;;;;;;5130647;27;20426;-73
2024/01/22 07:10:40;;;;;;;1.37;1.20;;;7.40;99.90;;;;;;5130513;27;20505;-73
2024/01/22 07:13:06;;;;;;;2.80;0.90;;;7.40;99.90;;;;;;5095458;27;20177;-73
2024/01/22 07:15:31;;;;;;;1.73;1.07;;;7.40;99.90;;;;;;5112057;27;20433;-73
2024/01/22 07:17:57;;;;;;;3.33;1.37;;;7.40;99.90;;;;;;5130403;27;20468;-73
2024/01/22 07:20:23;;;;;;;3.13;1.50;;;7.50;99.90;;;;;;5130382;27;20191;-74
2024/01/22 07:22:49;;;;;;;2.03;1.10;;;7.70;99.90;;;;;;5111821;27;20915;-73
2024/01/22 07:25:16;;;;;;;2.00;1.00;;;7.80;99.90;;;;;;5094815;27;20426;-73
2024/01/22 07:27:44;;;;;;;2.80;0.93;;;8.00;99.90;;;;;;5111971;27;20504;-73
2024/01/22 07:30:12;;;;;;;1.93;1.00;;;8.30;99.90;;;;;;5130407;27;20449;-73
2024/01/22 07:32:40;;;;;;;1.40;0.67;;;8.30;99.90;;;;;;5111820;27;20461;-73
2024/01/22 07:35:07;;;;;;;1.03;0.93;;;8.50;99.60;;;;;;5130502;27;20460;-73
2024/01/22 07:37:44;;;;;;;1.27;0.60;;;8.60;99.90;;;;;;5130408;27;20426;-73
2024/01/22 07:40:10;;;;;;;1.63;1.00;;;8.60;99.90;;;;;;5130335;27;20850;-73
2024/01/22 07:42:37;;;;;;;6.30;5.70;;;8.70;99.90;;;;;;5111735;27;20419;-73
2024/01/22 07:45:06;;;;;;;2.50;1.03;;;8.70;99.90;;;;;;5130223;27;20423;-74
2024/01/22 07:47:35;;;;;;;11.50;1.97;;;8.90;99.90;;;;;;5111659;27;20423;-73
2024/01/22 07:50:10;;;;;;;5.80;0.60;;;9.00;99.90;;;;;;5111785;27;20438;-73
2024/01/22 07:52:37;;;;;;;2.17;0.80;;;9.10;99.90;;;;;;5095031;27;20466;-73
2024/01/22 07:55:05;;;;;;;1.13;0.60;;;9.10;99.90;;;;;;5094544;27;20508;-73
2024/01/22 07:57:31;;;;;;;1.00;0.80;;;9.20;99.90;;;;;;5129997;27;20438;-73
2024/01/22 07:59:57;;;;;;;2.50;1.17;;;9.40;99.90;;;;;;5111522;27;20471;-73
2024/01/22 08:02:22;;;;;;;1.13;0.80;;;9.50;99.90;;;;;;5094493;27;20184;-73
2024/01/22 08:04:48;;;;;;;0.80;0.60;;;9.50;99.90;;;;;;5129515;27;20241;-74
2024/01/22 08:07:14;;;;;;;1.67;0.70;;;9.60;99.90;;;;;;5129407;27;20284;-73
2024/01/22 08:09:40;;;;;;;0.90;0.50;;;9.60;99.90;;;;;;5110549;27;20205;-73
2024/01/22 08:12:06;;;;;;;1.57;0.60;;;9.90;99.90;;;;;;5130127;27;20462;-73
2024/01/22 08:14:33;;;;;;;0.90;0.53;;;9.90;99.90;;;;;;5129622;27;20433;-73
2024/01/22 08:17:01;;;;;;;1.70;0.60;;;10.00;99.90;;;;;;5110766;27;20181;-74
2024/01/22 08:19:27;;;;;;;1.07;0.50;;;9.90;99.90;;;;;;5129196;27;20453;-75
2024/01/22 08:21:53;;;;;;;1.73;0.50;;;10.00;99.90;;;;;;5129385;27;20419;-74
2024/01/22 08:24:19;;;;;;;0.93;0.60;;;10.00;99.90;;;;;;5129566;27;20427;-75
2024/01/22 08:26:45;;;;;;;1.93;0.90;;;10.00;99.90;;;;;;5129504;27;20492;-75
2024/01/22 08:29:11;;;;;;;3.37;1.00;;;10.00;99.90;;;;;;5110550;27;20502;-75
2024/01/22 08:31:37;;;;;;;1.67;0.60;;;10.00;99.90;;;;;;5129297;27;20466;-75
2024/01/22 08:34:03;;;;;;;2.10;0.60;;;10.00;99.90;;;;;;5129128;27;20674;-74
2024/01/22 08:36:29;;;;;;;1.30;0.60;;;10.00;99.90;;;;;;5128033;27;20483;-74
2024/01/22 08:38:54;;;;;;;0.80;0.50;;;9.90;99.90;;;;;;5128950;27;20278;-75
2024/01/22 08:41:26;;;;;;;0.80;0.60;;;10.10;99.90;;;;;;5128851;27;20671;-74
2024/01/22 08:43:53;;;;;;;3.00;0.70;;;10.10;99.90;;;;;;5129009;27;20188;-75
2024/01/22 08:46:18;;;;;;;1.10;0.70;;;10.00;99.90;;;;;;5110639;27;20464;-75
2024/01/22 08:48:44;;;;;;;0.90;0.50;;;10.00;99.90;;;;;;5128895;27;20488;-74
2024/01/22 08:51:09;;;;;;;7.70;4.10;;;10.00;99.90;;;;;;5110404;27;20208;-74
2024/01/22 08:53:35;;;;;;;0.97;0.60;;;9.90;99.90;;;;;;5128171;27;20174;-74
2024/01/22 08:56:01;;;;;;;3.20;2.20;;;10.00;99.90;;;;;;5092647;28;20238;-75
2024/01/22 08:58:26;;;;;;;1.30;1.20;;;10.00;99.90;;;;;;5109487;27;20245;-75
2024/01/22 09:00:52;;;;;;;2.40;1.30;;;9.90;99.90;;;;;;5128472;27;20183;-75
2024/01/22 09:03:18;;;;;;;1.20;0.77;;;9.80;99.90;;;;;;5092735;27;20185;-75
2024/01/22 09:05:44;;;;;;;0.90;0.73;;;9.90;99.90;;;;;;5127999;27;20185;-75
2024/01/22 09:08:09;;;;;;;1.30;0.50;;;10.00;99.90;;;;;;5109588;27;20450;-74
2024/01/22 09:10:35;;;;;;;0.80;0.60;;;10.00;99.90;;;;;;5128226;27;20189;-74
2024/01/22 09:13:00;;;;;;;1.53;0.80;;;10.20;99.90;;;;;;5092786;28;20211;-75
2024/01/22 09:15:26;;;;;;;1.20;0.50;;;10.10;99.90;;;;;;5128358;28;20845;-74
2024/01/22 09:17:51;;;;;;;1.07;0.60;;;10.10;99.90;;;;;;5109836;28;20260;-74
2024/01/22 09:20:17;;;;;;;0.80;0.50;;;10.20;99.90;;;;;;5128562;28;20175;-74
2024/01/22 09:22:43;;;;;;;0.80;0.60;;;10.30;99.90;;;;;;5128697;28;20684;-74
2024/01/22 09:25:09;;;;;;;1.10;0.70;;;10.30;99.90;;;;;;5128453;28;20418;-74
2024/01/22 09:27:34;;;;;;;0.90;0.70;;;10.30;99.90;;;;;;5109956;28;20727;-75
2024/01/22 09:30:00;;;;;;;2.10;0.67;;;10.20;99.90;;;;;;5128160;28;20198;-74
2024/01/22 09:32:25;;;;;;;0.80;0.40;;;10.20;99.90;;;;;;5128384;28;20589;-74
2024/01/22 09:34:51;;;;;;;1.10;0.57;;;10.20;99.90;;;;;;5128264;28;20173;-74
2024/01/22 09:37:17;;;;;;;1.13;0.57;;;10.30;99.90;;;;;;5109460;28;20247;-74
2024/01/22 09:39:44;;;;;;;2.03;0.60;;;10.30;99.90;;;;;;5128315;28;21045;-74
2024/01/22 09:42:12;;;;;;;1.07;0.80;;;10.40;99.90;;;;;;5128161;28;20422;-74
2024/01/22 09:44:40;;;;;;;1.63;0.70;;;10.30;99.90;;;;;;5127995;28;20438;-74
2024/01/22 09:47:05;;;;;;;8.50;0.80;;;10.40;99.90;;;;;;5109714;28;20466;-74
2024/01/22 09:49:31;;;;;;;0.80;0.60;;;10.50;99.90;;;;;;5127866;28;21109;-74
2024/01/22 09:51:57;;;;;;;1.43;0.63;;;10.60;99.90;;;;;;5127888;28;20209;-74
2024/01/22 09:54:28;;;;;;;1.23;0.90;;;10.60;99.90;;;;;;5127855;28;20260;-74
2024/01/22 09:56:55;;;;;;;2.20;1.40;;;10.70;99.90;;;;;;5127737;28;20185;-75
2024/01/22 09:59:22;;;;;;;2.80;0.97;;;10.60;99.90;;;;;;5127705;28;20426;-75
2024/01/22 10:01:49;;;;;;;1.60;0.80;;;10.40;99.90;;;;;;5127631;28;20415;-74
2024/01/22 10:04:16;;;;;;;1.67;0.70;;;10.70;99.90;;;;;;5127721;28;20426;-74
2024/01/22 10:06:43;;;;;;;1.30;1.00;;;11.60;99.90;;;;;;5127651;28;20411;-75
2024/01/22 10:09:09;;;;;;;1.50;0.97;;;12.80;99.90;;;;;;5108889;28;20446;-74
2024/01/22 10:11:35;;;;;;;1.83;0.60;;;13.10;99.90;;;;;;5109099;28;20468;-75
2024/01/22 10:14:01;;;;;;;1.77;0.93;;;13.00;99.90;;;;;;5127837;28;20505;-75
2024/01/22 10:16:28;;;;;;;1.70;0.80;;;12.90;99.90;;;;;;5110085;27;20463;-74
2024/01/22 10:19:05;;;;;;;2.20;1.17;;;12.60;99.90;;;;;;5131488;27;20281;-75
2024/01/22 10:21:31;;;;;;;1.10;0.80;;;12.40;99.90;;;;;;5131435;27;20424;-74
2024/01/22 10:24:08;;;;;;;2.83;1.10;;;12.20;99.90;;;;;;5096012;27;20474;-74
2024/01/22 10:26:35;;;;;;;1.93;1.17;;;12.10;99.90;;;;;;5131263;27;20472;-74
2024/01/22 10:29:21;;;;;;;2.53;1.00;;;11.60;99.90;;;;;;5131436;27;20517;-75
2024/01/22 10:31:59;;;;;;;1.00;0.70;;;11.40;99.90;;;;;;5112326;27;20475;-74
2024/01/22 10:34:27;;;;;;;1.27;0.83;;;11.20;99.90;;;;;;5095477;27;20427;-74
2024/01/22 10:37:07;;;;;;;1.30;0.80;;;11.10;99.90;;;;;;5112528;27;20975;-75
2024/01/22 10:39:36;;;;;;;1.00;0.83;;;11.10;99.90;;;;;;5113050;27;20464;-75
2024/01/22 10:42:16;;;;;;;3.37;1.33;;;11.10;99.90;;;;;;5130798;27;20420;-75
2024/01/22 10:44:46;;;;;;;1.10;0.70;;;11.20;99.90;;;;;;5112184;27;20421;-75
2024/01/22 10:47:13;;;;;;;2.90;0.90;;;11.20;99.90;;;;;;5131041;27;20955;-74
2024/01/22 10:49:42;;;;;;;1.50;0.70;;;11.20;99.90;;;;;;5130654;27;21022;-74
2024/01/22 10:52:08;;;;;;;3.87;0.93;;;11.20;99.90;;;;;;5130722;27;20470;-74
2024/01/22 10:54:35;;;;;;;1.20;0.80;;;11.20;99.90;;;;;;5130596;27;20417;-75
2024/01/22 10:57:14;;;;;;;1.97;0.80;;;11.20;99.90;;;;;;5112141;27;20177;-75
2024/01/22 10:59:48;;;;;;;1.20;0.93;;;11.20;99.90;;;;;;5130412;27;20441;-75
2024/01/22 11:02:23;;;;;;;2.00;0.80;;;11.10;99.90;;;;;;5130888;27;20491;-74
2024/01/22 11:05:13;;;;;;;1.63;0.70;;;11.20;99.90;;;;;;5131078;27;21300;-74
2024/01/22 11:07:40;;;;;;;1.20;0.73;;;11.20;99.90;;;;;;5112202;27;20455;-74
2024/01/22 11:10:09;;;;;;;1.90;0.53;;;11.20;99.90;;;;;;5130622;27;20535;-74
2024/01/22 11:12:54;;;;;;;0.97;0.60;;;11.20;99.90;;;;;;5130800;27;20558;-74
2024/01/22 11:15:20;;;;;;;0.90;0.70;;;11.20;99.90;;;;;;5131001;27;20402;-74
2024/01/22 11:17:47;;;;;;;1.43;0.60;;;11.20;99.90;;;;;;5130814;27;20399;-74
2024/01/22 11:20:20;;;;;;;1.30;0.93;;;11.20;99.90;;;;;;5130444;27;20205;-74
2024/01/22 11:23:04;;;;;;;0.93;0.80;;;11.10;99.90;;;;;;5130308;27;20417;-74
2024/01/22 11:25:31;;;;;;;2.23;0.80;;;11.40;99.90;;;;;;5112131;27;20468;-74
2024/01/22 11:28:09;;;;;;;2.23;1.37;;;11.40;99.90;;;;;;5129084;27;20515;-74
2024/01/22 11:30:42;;;;;;;1.67;0.90;;;11.40;99.90;;;;;;5094919;27;20460;-75
2024/01/22 11:33:23;;;;;;;1.43;0.57;;;11.40;99.90;;;;;;5129910;27;20941;-74
2024/01/22 11:35:49;;;;;;;1.00;0.60;;;11.40;99.90;;;;;;5129834;27;20460;-75
2024/01/22 11:38:42;;;;;;;0.90;0.60;;;11.50;99.90;;;;;;5129871;27;20442;-75
2024/01/22 11:41:07;;;;;;;1.43;0.93;;;11.50;99.90;;;;;;5129702;27;20725;-74
2024/01/22 11:43:36;;;;;;;1.43;0.60;;;11.40;99.90;;;;;;5129768;27;20417;-75
2024/01/22 11:46:15;;;;;;;0.80;0.60;;;11.40;99.90;;;;;;5094241;27;20631;-74
2024/01/22 11:48:40;;;;;;;1.47;1.10;;;11.30;99.90;;;;;;5129743;27;20793;-74
2024/01/22 11:51:07;;;;;;;3.33;1.23;;;11.40;99.90;;;;;;5111447;27;20477;-74
2024/01/22 11:53:48;;;;;;;0.80;0.50;;;11.40;99.90;;;;;;5129876;27;20308;-75
2024/01/22 11:56:14;;;;;;;0.80;0.60;;;11.30;99.90;;;;;;5130085;27;20430;-75
2024/01/22 11:58:40;;;;;;;1.27;0.80;;;11.20;99.90;;;;;;5110890;27;20434;-75
2024/01/22 12:01:11;;;;;;;1.00;0.70;;;11.10;99.90;;;;;;5129472;27;20724;-75
2024/01/22 12:03:37;;;;;;;1.17;0.87;;;11.10;99.90;;;;;;5129793;27;20181;-75
2024/01/22 12:06:05;;;;;;;0.90;0.60;;;11.00;99.90;;;;;;5129547;27;20431;-76
2024/01/22 12:08:31;;;;;;;0.90;0.67;;;11.00;99.90;;;;;;5129575;27;20447;-76
2024/01/22 12:11:23;;;;;;;0.90;0.60;;;11.00;99.90;;;;;;5110980;27;20472;-76
2024/01/22 12:13:49;;;;;;;1.00;0.70;;;10.90;99.90;;;;;;5124625;27;20465;-75
2024/01/22 12:16:19;;;;;;;2.30;1.00;;;10.90;99.90;;;;;;5129546;27;20504;-75
2024/01/22 12:18:45;;;;;;;1.40;0.93;;;10.90;99.90;;;;;;5129576;27;20198;-76
2024/01/22 12:21:11;;;;;;;1.33;0.80;;;10.80;99.90;;;;;;5129427;27;20419;-75
2024/01/22 12:23:38;;;;;;;1.47;0.80;;;10.80;99.90;;;;;;5129567;27;20505;-76
2024/01/22 12:26:21;;;;;;;1.37;1.20;;;10.80;99.90;;;;;;5129216;27;20420;-75
2024/01/22 12:28:55;;;;;;;1.00;0.70;;;10.70;99.90;;;;;;5129273;27;20431;-75
2024/01/22 12:31:21;;;;;;;1.10;0.50;;;10.80;99.90;;;;;;5129075;27;20544;-75
2024/01/22 12:33:47;;;;;;;5.23;0.40;;;11.10;99.90;;;;;;5110784;27;20418;-72
2024/01/22 12:36:14;;;;;;;2.23;0.50;;;11.10;99.90;;;;;;5128903;27;20426;-75
2024/01/22 12:38:52;;;;;;;1.63;1.27;;;11.20;99.90;;;;;;5110308;27;20469;-75
2024/01/22 12:41:19;;;;;;;0.90;0.50;;;11.40;99.90;;;;;;5129723;27;20410;-75
2024/01/22 12:43:45;;;;;;;0.70;0.40;;;11.50;99.90;;;;;;5128889;27;20434;-74
2024/01/22 12:46:15;;;;;;;1.00;0.50;;;11.40;99.90;;;;;;5128792;27;20502;-75
2024/01/22 12:48:44;;;;;;;1.33;0.50;;;11.40;99.90;;;;;;5128793;27;20444;-76
2024/01/22 12:51:10;;;;;;;0.80;0.40;;;11.50;99.90;;;;;;5110557;27;20473;-75
2024/01/22 12:53:35;;;;;;;1.00;0.50;;;11.50;99.90;;;;;;5129039;27;20414;-75